createdAt,value
2022-07-26T00:00:15.288Z,19.77
2022-07-26T00:02:39.262Z,19.74
2022-07-26T00:04:09.073Z,19.74
2022-07-26T00:05:37.997Z,19.73
2022-07-26T00:07:06.992Z,19.73
2022-07-26T00:08:36.963Z,19.71
2022-07-26T00:10:06.295Z,19.71
2022-07-26T00:11:34.755Z,19.70
2022-07-26T00:13:04.710Z,19.70
2022-07-26T00:14:35.015Z,19.69
2022-07-26T00:16:04.751Z,19.67
2022-07-26T00:17:34.560Z,19.66
2022-07-26T00:19:35.792Z,19.66
2022-07-26T00:21:03.313Z,19.64
2022-07-26T00:22:32.680Z,19.64
2022-07-26T00:24:02.588Z,19.66
2022-07-26T00:26:40.394Z,19.64
2022-07-26T00:28:43.204Z,19.59
2022-07-26T00:32:50.896Z,19.59
2022-07-26T00:33:58.105Z,19.59
2022-07-26T00:36:15.581Z,19.56
2022-07-26T00:40:51.199Z,19.54
2022-07-26T00:42:27.327Z,19.52
2022-07-26T00:45:29.261Z,19.49
2022-07-26T00:47:21.676Z,19.51
2022-07-26T00:49:09.430Z,19.51
2022-07-26T00:52:46.360Z,19.49
2022-07-26T00:54:18.551Z,19.49
2022-07-26T00:56:10.571Z,19.48
2022-07-26T00:57:57.830Z,19.47
2022-07-26T00:59:20.418Z,19.40
2022-07-26T01:01:11.374Z,19.39
2022-07-26T01:02:42.509Z,19.40
2022-07-26T01:04:41.000Z,19.39
2022-07-26T01:06:40.515Z,19.39
2022-07-26T01:09:39.966Z,19.39
2022-07-26T01:11:06.340Z,19.36
2022-07-26T01:12:35.439Z,19.34
2022-07-26T01:14:40.675Z,19.34
2022-07-26T01:16:29.761Z,19.33
2022-07-26T01:18:18.246Z,19.33
2022-07-26T01:20:42.867Z,19.33
2022-07-26T01:23:08.775Z,19.34
2022-07-26T01:25:10.263Z,19.34
2022-07-26T01:26:40.028Z,19.33
2022-07-26T01:28:07.486Z,19.36
2022-07-26T01:29:56.473Z,19.36
2022-07-26T01:31:47.670Z,19.33
2022-07-26T01:34:47.116Z,19.31
2022-07-26T01:36:16.323Z,19.30
2022-07-26T01:37:44.312Z,19.30
2022-07-26T01:39:16.308Z,19.31
2022-07-26T01:40:46.853Z,19.30
2022-07-26T01:42:55.602Z,19.31
2022-07-26T01:44:42.746Z,19.31
2022-07-26T01:45:40.068Z,19.30
2022-07-26T01:46:40.187Z,19.29
2022-07-26T01:49:52.368Z,19.30
2022-07-26T01:51:26.702Z,19.30
2022-07-26T01:54:01.743Z,19.29
2022-07-26T01:55:52.373Z,19.30
2022-07-26T01:57:41.345Z,19.29
2022-07-26T01:59:41.444Z,19.29
2022-07-26T02:01:15.898Z,19.29
2022-07-26T02:05:33.082Z,19.30
2022-07-26T02:07:24.397Z,19.29
2022-07-26T02:09:43.354Z,19.29
2022-07-26T02:11:55.379Z,19.29
2022-07-26T02:14:06.358Z,19.27
2022-07-26T02:16:56.659Z,19.29
2022-07-26T02:18:46.938Z,19.26
2022-07-26T02:20:33.806Z,19.27
2022-07-26T02:23:36.740Z,19.21
2022-07-26T02:25:44.653Z,19.19
2022-07-26T02:30:12.564Z,19.15
2022-07-26T02:31:42.812Z,19.14
2022-07-26T02:33:32.548Z,19.12
2022-07-26T02:35:24.622Z,19.11
2022-07-26T02:37:44.101Z,19.09
2022-07-26T02:39:12.695Z,19.00
2022-07-26T02:40:40.591Z,19.00
2022-07-26T02:44:49.627Z,18.96
2022-07-26T02:46:18.821Z,18.95
2022-07-26T02:47:48.270Z,18.93
2022-07-26T02:50:27.623Z,18.90
2022-07-26T02:51:57.549Z,18.89
2022-07-26T02:53:46.244Z,18.89
2022-07-26T02:55:15.102Z,18.88
2022-07-26T02:56:44.376Z,18.83
2022-07-26T02:59:32.255Z,18.77
2022-07-26T03:01:21.812Z,18.75
2022-07-26T03:04:31.352Z,18.73
2022-07-26T03:06:00.298Z,18.70
2022-07-26T03:08:29.921Z,18.66
2022-07-26T03:11:17.791Z,18.63
2022-07-26T03:13:16.594Z,18.63
2022-07-26T03:15:16.176Z,18.62
2022-07-26T03:16:46.089Z,18.59
2022-07-26T03:18:14.963Z,18.58
2022-07-26T03:19:46.852Z,18.55
2022-07-26T03:22:23.317Z,18.53
2022-07-26T03:23:52.303Z,18.53
2022-07-26T03:25:23.485Z,18.52
2022-07-26T03:27:21.216Z,18.52
2022-07-26T03:29:43.618Z,18.49
2022-07-26T03:31:43.560Z,18.50
2022-07-26T03:33:32.189Z,18.49
2022-07-26T03:35:03.115Z,18.49
2022-07-26T03:38:09.753Z,18.49
2022-07-26T03:39:38.975Z,18.47
2022-07-26T03:41:28.237Z,18.45
2022-07-26T03:42:58.148Z,18.43
2022-07-26T03:44:19.070Z,18.41
2022-07-26T03:44:58.049Z,18.41
2022-07-26T03:45:58.060Z,18.37
2022-07-26T03:47:28.244Z,18.34
2022-07-26T03:49:48.955Z,18.33
2022-07-26T03:51:38.603Z,18.33
2022-07-26T03:54:26.153Z,18.34
2022-07-26T03:56:25.295Z,18.33
2022-07-26T03:57:58.243Z,18.33
2022-07-26T03:59:29.099Z,18.31
2022-07-26T04:01:19.916Z,18.31
2022-07-26T04:03:29.169Z,18.29
2022-07-26T04:04:58.320Z,18.29
2022-07-26T04:06:46.954Z,18.26
2022-07-26T04:08:38.386Z,18.26
2022-07-26T04:10:10.668Z,18.25
2022-07-26T04:12:28.020Z,18.22
2022-07-26T04:13:59.276Z,18.20
2022-07-26T04:15:28.591Z,18.20
2022-07-26T04:17:03.260Z,18.20
2022-07-26T04:19:04.382Z,18.18
2022-07-26T04:21:43.167Z,18.19
2022-07-26T04:22:57.831Z,18.19
2022-07-26T04:24:46.502Z,18.22
2022-07-26T04:27:09.303Z,18.28
2022-07-26T04:28:40.253Z,18.29
2022-07-26T04:30:14.727Z,18.31
2022-07-26T04:32:32.700Z,18.33
2022-07-26T04:37:41.663Z,18.35
2022-07-26T04:40:05.330Z,18.38
2022-07-26T04:41:53.300Z,18.41
2022-07-26T04:44:34.215Z,18.43
2022-07-26T04:47:50.318Z,18.49
2022-07-26T04:48:59.746Z,18.52
2022-07-26T04:52:28.970Z,18.52
2022-07-26T04:54:19.629Z,18.53
2022-07-26T04:56:35.191Z,18.55
2022-07-26T04:58:55.622Z,18.56
2022-07-26T05:00:27.891Z,18.59
2022-07-26T05:01:58.460Z,18.60
2022-07-26T05:04:20.156Z,18.60
2022-07-26T05:05:51.623Z,18.63
2022-07-26T05:07:21.228Z,18.65
2022-07-26T05:08:57.768Z,18.66
2022-07-26T05:10:56.207Z,18.68
2022-07-26T05:12:45.509Z,18.66
2022-07-26T05:14:16.346Z,18.71
2022-07-26T05:15:45.732Z,18.77
2022-07-26T05:17:36.950Z,18.80
2022-07-26T05:19:03.685Z,18.81
2022-07-26T05:20:32.107Z,18.83
2022-07-26T05:23:17.135Z,18.86
2022-07-26T05:25:11.513Z,18.89
2022-07-26T05:26:38.847Z,18.92
2022-07-26T05:28:30.294Z,18.96
2022-07-26T05:30:20.403Z,18.96
2022-07-26T05:33:29.229Z,18.98
2022-07-26T05:37:14.136Z,18.98
2022-07-26T05:41:16.557Z,19.00
2022-07-26T05:44:44.830Z,19.07
2022-07-26T05:46:50.069Z,19.09
2022-07-26T05:50:35.236Z,19.14
2022-07-26T05:52:05.298Z,19.16
2022-07-26T05:53:34.169Z,19.18
2022-07-26T05:55:56.051Z,19.19
2022-07-26T05:59:03.379Z,19.18
2022-07-26T06:04:54.175Z,19.22
2022-07-26T06:06:44.334Z,19.24
2022-07-26T06:11:55.674Z,19.27
2022-07-26T06:13:26.062Z,19.27
2022-07-26T06:14:57.317Z,19.26
2022-07-26T06:17:24.113Z,19.26
2022-07-26T06:18:52.529Z,19.26
2022-07-26T06:21:22.213Z,19.24
2022-07-26T06:27:18.957Z,19.15
2022-07-26T06:28:48.895Z,19.16
2022-07-26T06:30:24.635Z,19.15
2022-07-26T06:33:03.340Z,19.15
2022-07-26T06:36:21.247Z,19.11
2022-07-26T06:41:41.451Z,18.99
2022-07-26T06:43:28.589Z,18.96
2022-07-26T06:46:18.351Z,18.93
2022-07-26T06:48:17.077Z,18.95
2022-07-26T06:49:45.887Z,18.96
2022-07-26T06:51:49.542Z,18.98
2022-07-26T06:54:57.857Z,18.96
2022-07-26T06:56:28.661Z,18.96
2022-07-26T06:58:40.211Z,18.98
2022-07-26T07:00:36.653Z,19.00
2022-07-26T07:02:25.029Z,19.02
2022-07-26T07:03:57.250Z,18.99
2022-07-26T07:05:27.849Z,19.00
2022-07-26T07:09:57.629Z,18.90
2022-07-26T07:13:42.935Z,18.92
2022-07-26T07:16:13.135Z,18.96
2022-07-26T07:17:38.442Z,18.96
2022-07-26T07:20:32.729Z,18.96
2022-07-26T07:26:02.066Z,18.90
2022-07-26T07:27:32.132Z,18.89
2022-07-26T07:29:04.216Z,18.84
2022-07-26T07:30:58.910Z,18.86
2022-07-26T07:33:36.475Z,18.89
2022-07-26T07:36:31.353Z,18.83
2022-07-26T07:38:22.518Z,18.81
2022-07-26T07:39:50.734Z,18.81
2022-07-26T07:41:20.385Z,18.80
2022-07-26T07:45:02.257Z,18.83
2022-07-26T07:47:05.848Z,18.84
2022-07-26T07:49:11.997Z,18.86
2022-07-26T07:51:21.892Z,18.88
2022-07-26T07:52:59.048Z,18.89
2022-07-26T07:55:40.986Z,18.90
2022-07-26T07:57:08.895Z,18.96
2022-07-26T07:58:45.294Z,18.96
2022-07-26T08:01:23.572Z,19.02
2022-07-26T08:03:24.515Z,19.02
2022-07-26T08:08:23.808Z,19.04
2022-07-26T08:12:24.859Z,19.09
2022-07-26T08:15:07.420Z,19.04
2022-07-26T08:16:43.006Z,18.96
2022-07-26T08:19:11.962Z,18.88
2022-07-26T08:21:04.461Z,18.81
2022-07-26T08:25:08.521Z,18.66
2022-07-26T08:26:59.880Z,18.58
2022-07-26T08:29:44.839Z,18.53
2022-07-26T08:31:17.230Z,18.52
2022-07-26T08:33:58.308Z,18.50
2022-07-26T08:36:02.071Z,18.45
2022-07-26T08:37:18.253Z,18.45
2022-07-26T08:41:40.705Z,18.50
2022-07-26T08:43:09.080Z,18.50
2022-07-26T08:44:38.020Z,18.53
2022-07-26T08:46:10.009Z,18.52
2022-07-26T08:48:19.435Z,18.52
2022-07-26T08:49:40.358Z,18.55
2022-07-26T08:54:08.091Z,18.60
2022-07-26T08:55:56.910Z,18.58
2022-07-26T08:57:23.523Z,18.62
2022-07-26T09:00:17.632Z,18.60
2022-07-26T09:01:46.208Z,18.59
2022-07-26T09:03:16.065Z,18.56
2022-07-26T09:05:35.771Z,18.52
2022-07-26T09:07:03.669Z,18.52
2022-07-26T09:08:33.823Z,18.52
2022-07-26T09:10:00.905Z,18.55
2022-07-26T09:11:33.720Z,18.58
2022-07-26T09:14:03.604Z,18.65
2022-07-26T09:15:34.962Z,18.66
2022-07-26T09:17:35.434Z,18.73
2022-07-26T09:19:22.906Z,18.77
2022-07-26T09:20:54.180Z,18.78
2022-07-26T09:25:56.637Z,18.86
2022-07-26T09:28:36.174Z,18.90
2022-07-26T09:30:26.850Z,18.95
2022-07-26T09:32:02.396Z,18.99
2022-07-26T09:34:33.567Z,19.11
2022-07-26T09:36:02.257Z,19.15
2022-07-26T09:38:00.081Z,19.22
2022-07-26T09:39:33.453Z,19.27
2022-07-26T09:41:24.185Z,19.34
2022-07-26T09:43:56.683Z,19.39
2022-07-26T09:45:43.554Z,19.44
2022-07-26T09:48:01.117Z,19.49
2022-07-26T09:49:40.062Z,19.54
2022-07-26T09:53:13.545Z,19.56
2022-07-26T09:55:56.178Z,19.56
2022-07-26T09:58:48.209Z,19.56
2022-07-26T10:00:19.411Z,19.58
2022-07-26T10:02:41.235Z,19.58
2022-07-26T10:05:15.550Z,19.63
2022-07-26T10:07:36.576Z,19.70
2022-07-26T10:09:29.383Z,19.73
2022-07-26T10:11:38.667Z,19.81
2022-07-26T10:13:31.056Z,19.85
2022-07-26T10:15:20.793Z,19.89
2022-07-26T10:18:08.128Z,20.02
2022-07-26T10:19:41.624Z,20.06
2022-07-26T10:22:08.906Z,20.07
2022-07-26T10:23:48.047Z,20.07
2022-07-26T10:25:49.464Z,20.07
2022-07-26T10:29:08.655Z,20.03
2022-07-26T10:30:39.199Z,19.96
2022-07-26T10:32:08.564Z,19.91
2022-07-26T10:34:06.416Z,19.85
2022-07-26T10:35:37.038Z,19.81
2022-07-26T10:37:06.353Z,19.76
2022-07-26T10:40:04.759Z,19.64
2022-07-26T10:43:23.005Z,19.49
2022-07-26T10:46:37.875Z,19.41
2022-07-26T10:49:46.109Z,19.31
2022-07-26T10:51:12.586Z,19.29
2022-07-26T10:53:53.960Z,19.22
2022-07-26T10:55:02.199Z,19.21
2022-07-26T10:57:40.708Z,19.19
2022-07-26T11:01:31.277Z,19.22
2022-07-26T11:03:01.450Z,19.26
2022-07-26T11:05:45.815Z,19.29
2022-07-26T11:07:38.476Z,19.34
2022-07-26T11:09:25.222Z,19.37
2022-07-26T11:10:57.134Z,19.44
2022-07-26T11:13:35.947Z,19.51
2022-07-26T11:15:04.726Z,19.55
2022-07-26T11:17:23.460Z,19.62
2022-07-26T11:21:59.270Z,19.76
2022-07-26T11:23:48.702Z,19.82
2022-07-26T11:25:53.242Z,19.88
2022-07-26T11:29:50.274Z,20.02
2022-07-26T11:33:52.768Z,20.19
2022-07-26T11:36:12.126Z,20.28
2022-07-26T11:38:36.718Z,20.32
2022-07-26T11:40:15.510Z,20.31
2022-07-26T11:42:57.109Z,20.25
2022-07-26T11:44:27.419Z,20.19
2022-07-26T11:46:19.890Z,20.13
2022-07-26T11:47:45.966Z,20.10
2022-07-26T11:49:15.737Z,20.06
2022-07-26T11:50:46.110Z,20.06
2022-07-26T11:52:15.626Z,20.04
2022-07-26T11:56:53.007Z,20.14
2022-07-26T11:59:13.784Z,20.22
2022-07-26T12:03:12.793Z,20.36
2022-07-26T12:05:59.694Z,20.51
2022-07-26T12:07:47.204Z,20.59
2022-07-26T12:11:22.044Z,20.67
2022-07-26T12:19:16.755Z,20.66
2022-07-26T12:20:50.663Z,20.65
2022-07-26T12:24:56.694Z,20.52
2022-07-26T12:26:25.588Z,20.50
2022-07-26T12:29:07.893Z,20.41
2022-07-26T12:32:43.640Z,20.28
2022-07-26T12:34:15.549Z,20.24
2022-07-26T12:35:43.467Z,20.22
2022-07-26T12:38:42.006Z,20.21
2022-07-26T12:40:39.853Z,20.22
2022-07-26T12:43:01.043Z,20.28
2022-07-26T12:44:28.086Z,20.34
2022-07-26T12:46:25.899Z,20.55
2022-07-26T12:47:55.908Z,20.66
2022-07-26T12:50:45.500Z,20.75
2022-07-26T12:57:57.102Z,20.78
2022-07-26T12:59:53.322Z,20.81
2022-07-26T13:01:51.331Z,20.87
2022-07-26T13:08:32.377Z,20.82
2022-07-26T13:10:30.455Z,20.82
2022-07-26T13:11:31.215Z,20.80
2022-07-26T13:14:57.770Z,20.96
2022-07-26T13:16:26.781Z,21.20
2022-07-26T13:18:26.130Z,21.39
2022-07-26T13:19:55.279Z,21.46
2022-07-26T13:23:17.901Z,21.72
2022-07-26T13:25:43.095Z,21.93
2022-07-26T13:27:44.703Z,22.08
2022-07-26T13:29:10.663Z,22.13
2022-07-26T13:30:40.563Z,22.13
2022-07-26T13:33:38.253Z,22.23
2022-07-26T13:35:07.149Z,22.30
2022-07-26T13:36:37.051Z,22.39
2022-07-26T13:38:06.925Z,22.54
2022-07-26T13:40:30.631Z,22.65
2022-07-26T13:43:12.068Z,22.66
2022-07-26T13:47:20.193Z,22.62
2022-07-26T13:49:00.438Z,22.70
2022-07-26T13:52:17.291Z,22.60
2022-07-26T13:54:44.493Z,22.50
2022-07-26T13:56:43.243Z,22.44
2022-07-26T14:00:09.798Z,22.32
2022-07-26T14:02:08.655Z,22.29
2022-07-26T14:05:07.887Z,22.30
2022-07-26T14:06:36.850Z,22.28
2022-07-26T14:08:05.757Z,22.28
2022-07-26T14:09:35.654Z,22.28
2022-07-26T14:11:04.632Z,22.26
2022-07-26T14:14:59.261Z,22.28
2022-07-26T14:16:28.336Z,22.38
2022-07-26T14:19:00.115Z,22.57
2022-07-26T14:20:28.311Z,22.66
2022-07-26T14:21:59.292Z,22.68
2022-07-26T14:24:28.898Z,22.87
2022-07-26T14:26:27.819Z,22.75
2022-07-26T14:28:26.649Z,22.69
2022-07-26T14:29:56.670Z,22.54
2022-07-26T14:31:56.127Z,22.39
2022-07-26T14:34:23.380Z,22.26
2022-07-26T14:36:23.849Z,22.17
2022-07-26T14:38:52.387Z,22.10
2022-07-26T14:41:20.196Z,22.06
2022-07-26T14:44:58.168Z,21.99
2022-07-26T14:47:37.780Z,21.91
2022-07-26T14:49:56.312Z,21.76
2022-07-26T14:55:32.397Z,21.76
2022-07-26T15:01:17.069Z,21.73
2022-07-26T15:03:43.736Z,21.67
2022-07-26T15:05:43.365Z,21.66
2022-07-26T15:07:12.048Z,21.67
2022-07-26T15:08:41.921Z,21.73
2022-07-26T15:11:09.863Z,21.79
2022-07-26T15:12:39.860Z,21.95
2022-07-26T15:14:10.039Z,22.94
2022-07-26T15:16:28.677Z,22.73
2022-07-26T15:18:27.402Z,22.47
2022-07-26T15:19:56.254Z,22.36
2022-07-26T15:21:25.281Z,22.68
2022-07-26T15:22:54.210Z,22.50
2022-07-26T15:24:24.465Z,22.36
2022-07-26T15:27:11.687Z,22.18
2022-07-26T15:30:05.102Z,22.14
2022-07-26T15:32:29.603Z,22.22
2022-07-26T15:34:47.245Z,22.26
2022-07-26T15:36:17.047Z,22.23
2022-07-26T15:38:06.026Z,22.18
2022-07-26T15:40:35.942Z,22.14
2022-07-26T15:42:57.884Z,22.10
2022-07-26T15:45:27.579Z,21.98
2022-07-26T15:46:59.663Z,21.93
2022-07-26T15:48:55.563Z,21.92
2022-07-26T15:50:55.562Z,21.93
2022-07-26T15:52:46.236Z,21.92
2022-07-26T15:54:34.093Z,21.89
2022-07-26T15:58:42.104Z,21.91
2022-07-26T16:03:09.286Z,21.95
2022-07-26T16:04:38.183Z,21.96
2022-07-26T16:06:08.204Z,21.99
2022-07-26T16:08:05.958Z,21.98
2022-07-26T16:09:34.844Z,22.04
2022-07-26T16:11:33.854Z,22.07
2022-07-26T16:13:31.819Z,22.11
2022-07-26T16:18:16.760Z,22.20
2022-07-26T16:19:46.642Z,22.14
2022-07-26T16:21:19.170Z,22.07
2022-07-26T16:22:48.804Z,22.06
2022-07-26T16:26:32.884Z,21.99
2022-07-26T16:29:34.252Z,22.13
2022-07-26T16:31:45.605Z,22.10
2022-07-26T16:33:19.785Z,22.10
2022-07-26T16:36:06.551Z,22.04
2022-07-26T16:37:35.054Z,22.02
2022-07-26T16:40:32.781Z,22.08
2022-07-26T16:41:57.396Z,22.13
2022-07-26T16:43:52.681Z,22.15
2022-07-26T16:46:12.633Z,22.20
2022-07-26T16:48:02.217Z,22.22
2022-07-26T16:50:27.264Z,22.25
2022-07-26T16:53:25.638Z,22.38
2022-07-26T16:56:18.428Z,22.38
2022-07-26T16:57:49.682Z,22.32
2022-07-26T16:59:40.670Z,22.30
2022-07-26T17:01:53.008Z,22.26
2022-07-26T17:03:58.575Z,22.29
2022-07-26T17:07:24.614Z,22.25
2022-07-26T17:10:43.544Z,21.96
2022-07-26T17:14:05.445Z,21.72
2022-07-26T17:19:41.565Z,21.51
2022-07-26T17:22:52.043Z,21.43
2022-07-26T17:24:31.774Z,21.39
2022-07-26T17:26:03.184Z,21.36
2022-07-26T17:27:33.948Z,21.33
2022-07-26T17:31:40.603Z,21.25
2022-07-26T17:33:11.740Z,21.22
2022-07-26T17:34:43.556Z,21.21
2022-07-26T17:37:30.578Z,21.14
2022-07-26T17:39:51.717Z,21.11
2022-07-26T17:41:43.183Z,21.02
2022-07-26T17:45:22.044Z,20.90
2022-07-26T17:46:54.742Z,20.85
2022-07-26T17:49:30.093Z,20.78
2022-07-26T17:51:16.687Z,20.77
2022-07-26T17:53:42.737Z,20.77
2022-07-26T17:56:04.174Z,20.77
2022-07-26T17:58:29.895Z,20.74
2022-07-26T18:00:19.044Z,20.74
2022-07-26T18:01:53.674Z,20.70
2022-07-26T18:04:12.536Z,20.62
2022-07-26T18:06:01.165Z,20.56
2022-07-26T18:07:50.662Z,20.51
2022-07-26T18:09:22.262Z,20.50
2022-07-26T18:13:32.807Z,20.40
2022-07-26T18:15:13.629Z,20.32
2022-07-26T18:16:41.124Z,20.28
2022-07-26T18:18:08.606Z,20.22
2022-07-26T18:19:59.184Z,20.11
2022-07-26T18:22:06.422Z,20.04
2022-07-26T18:23:54.817Z,19.99
2022-07-26T18:26:02.371Z,19.94
2022-07-26T18:27:34.000Z,19.89
2022-07-26T18:29:43.986Z,19.84
2022-07-26T18:32:27.097Z,19.74
2022-07-26T18:34:16.424Z,19.70
2022-07-26T18:35:45.055Z,19.67
2022-07-26T18:38:34.838Z,19.59
2022-07-26T18:40:24.498Z,19.59
2022-07-26T18:43:53.340Z,19.54
2022-07-26T18:45:26.761Z,19.52
2022-07-26T18:47:28.306Z,19.49
2022-07-26T18:49:50.835Z,19.47
2022-07-26T18:51:22.264Z,19.47
2022-07-26T18:52:56.115Z,19.44
2022-07-26T18:54:22.288Z,19.40
2022-07-26T18:56:12.042Z,19.39
2022-07-26T18:58:20.015Z,19.34
2022-07-26T18:59:55.629Z,19.36
2022-07-26T19:01:20.779Z,19.33
2022-07-26T19:05:37.321Z,19.26
2022-07-26T19:06:58.610Z,19.24
2022-07-26T19:08:56.823Z,19.21
2022-07-26T19:10:48.315Z,19.15
2022-07-26T19:13:36.303Z,19.09
2022-07-26T19:15:05.745Z,19.08
2022-07-26T19:17:13.863Z,19.02
2022-07-26T19:18:22.221Z,18.98
2022-07-26T19:20:45.683Z,18.93
2022-07-26T19:22:36.451Z,18.89
2022-07-26T19:24:27.152Z,18.83
2022-07-26T19:27:19.118Z,18.78
2022-07-26T19:28:47.523Z,18.77
2022-07-26T19:30:38.509Z,18.73
2022-07-26T19:33:00.699Z,18.66
2022-07-26T19:36:28.876Z,18.59
2022-07-26T19:38:48.695Z,18.56
2022-07-26T19:41:28.736Z,18.47
2022-07-26T19:44:02.757Z,18.40
2022-07-26T19:45:54.801Z,18.35
2022-07-26T19:47:55.564Z,18.33
2022-07-26T19:50:11.005Z,18.28
2022-07-26T19:51:42.478Z,18.28
2022-07-26T19:54:03.778Z,18.25
2022-07-26T19:56:44.679Z,18.19
2022-07-26T19:58:13.509Z,18.18
2022-07-26T19:59:43.871Z,18.15
2022-07-26T20:02:51.301Z,18.08
2022-07-26T20:04:24.202Z,18.04
2022-07-26T20:06:45.227Z,18.01
2022-07-26T20:09:25.534Z,18.00
2022-07-26T20:10:54.655Z,17.97
2022-07-26T20:13:04.198Z,17.94
2022-07-26T20:15:57.846Z,17.90
2022-07-26T20:18:06.555Z,17.87
2022-07-26T20:19:50.410Z,17.85
2022-07-26T20:24:02.005Z,17.80
2022-07-26T20:26:43.535Z,17.78
2022-07-26T20:28:15.336Z,17.74
2022-07-26T20:29:43.517Z,17.72
2022-07-26T20:31:35.338Z,17.68
2022-07-26T20:33:55.309Z,17.65
2022-07-26T20:35:31.598Z,17.63
2022-07-26T20:40:33.298Z,17.54
2022-07-26T20:42:35.440Z,17.52
2022-07-26T20:44:59.190Z,17.49
2022-07-26T20:46:28.336Z,17.45
2022-07-26T20:47:59.623Z,17.44
2022-07-26T20:50:20.354Z,17.41
2022-07-26T20:51:47.487Z,17.38
2022-07-26T20:53:45.618Z,17.33
2022-07-26T20:55:07.306Z,17.30
2022-07-26T20:56:37.351Z,17.29
2022-07-26T20:58:28.908Z,17.24
2022-07-26T21:00:21.420Z,17.22
2022-07-26T21:02:08.981Z,17.20
2022-07-26T21:03:41.784Z,17.19
2022-07-26T21:07:55.054Z,17.14
2022-07-26T21:10:26.512Z,17.11
2022-07-26T21:12:14.113Z,17.09
2022-07-26T21:13:43.631Z,17.09
2022-07-26T21:16:11.282Z,17.05
2022-07-26T21:19:13.067Z,17.04
2022-07-26T21:19:50.076Z,17.01
2022-07-26T21:20:49.781Z,17.01
2022-07-26T21:21:49.743Z,16.99
2022-07-26T21:24:33.315Z,16.96
2022-07-26T21:26:01.130Z,16.96
2022-07-26T21:28:17.169Z,16.93
2022-07-26T21:30:57.219Z,16.91
2022-07-26T21:32:31.330Z,16.89
2022-07-26T21:34:21.046Z,16.86
2022-07-26T21:37:06.962Z,16.83
2022-07-26T21:39:00.545Z,16.83
2022-07-26T21:40:48.847Z,16.79
2022-07-26T21:43:32.438Z,16.78
2022-07-26T21:45:32.147Z,16.75
2022-07-26T21:47:28.260Z,16.72
2022-07-26T21:49:21.428Z,16.69
2022-07-26T21:53:38.763Z,16.68
2022-07-26T21:56:46.049Z,16.64
2022-07-26T21:58:12.195Z,16.64
2022-07-26T21:59:44.258Z,16.61
2022-07-26T22:01:16.441Z,16.60
2022-07-26T22:03:54.695Z,16.56
2022-07-26T22:06:12.863Z,16.54
2022-07-26T22:07:44.823Z,16.53
2022-07-26T22:09:43.048Z,16.51
2022-07-26T22:11:47.323Z,16.50
2022-07-26T22:14:05.875Z,16.47
2022-07-26T22:16:27.516Z,16.46
2022-07-26T22:19:38.676Z,16.43
2022-07-26T22:22:01.149Z,16.41
2022-07-26T22:23:26.285Z,16.39
2022-07-26T22:26:22.213Z,16.36
2022-07-26T22:32:06.178Z,16.28
2022-07-26T22:33:15.111Z,16.28
2022-07-26T22:35:37.842Z,16.24
2022-07-26T22:39:57.660Z,16.20
2022-07-26T22:41:31.978Z,16.17
2022-07-26T22:43:05.802Z,16.17
2022-07-26T22:44:32.992Z,16.13
2022-07-26T22:47:33.372Z,16.09
2022-07-26T22:49:02.443Z,16.05
2022-07-26T22:53:12.017Z,16.04
2022-07-26T22:56:37.593Z,16.00
2022-07-26T23:00:32.801Z,15.94
2022-07-26T23:03:40.580Z,15.90
2022-07-26T23:05:19.885Z,15.84
2022-07-26T23:06:50.698Z,15.83
2022-07-26T23:09:59.887Z,15.79
2022-07-26T23:12:00.977Z,15.79
2022-07-26T23:13:29.702Z,15.75
2022-07-26T23:16:36.158Z,15.68
2022-07-26T23:20:43.812Z,15.55
2022-07-26T23:22:13.345Z,15.52
2022-07-26T23:25:24.327Z,15.47
2022-07-26T23:28:56.628Z,15.43
2022-07-26T23:31:44.309Z,15.40
2022-07-26T23:33:22.893Z,15.40
2022-07-26T23:37:22.038Z,15.31
2022-07-26T23:38:53.398Z,15.28
2022-07-26T23:40:42.571Z,15.25
2022-07-26T23:43:22.425Z,15.24
2022-07-26T23:44:52.514Z,15.22
2022-07-26T23:46:49.178Z,15.22
2022-07-26T23:48:17.281Z,15.21
2022-07-26T23:50:53.089Z,15.21
2022-07-26T23:56:23.389Z,15.21
2022-07-26T23:58:14.220Z,15.21
